CheckWX is a tool to help pilots better visualize weather data.  It is not intended as a substitute for an official pre-flight weather briefing.

23:32:32 UTC

46D METAR
Carrington Municipal Airport
Carrington, North Dakota, USA
Current

18 mins ago

K46D 242315Z AUTO 00000KT 9SM SCT036 BKN044 OVC065 14/12 A2958 RMK AO2
Observed
May-24 @ 23:15 UTC
Visibility
9 SM
Flight Rules
VFR
Cloud Levels
  • Scattered at 3,600' AGL
  • Broken at 4,400' AGL
  • Overcast at 6,500' AGL
Temperature
14°C / 57°F
Dewpoint
12°C / 54°F
Humidity
88%
Altimeter
29.58" Hg
Pressure
1001.72 hPa
Previous

38 mins ago

K46D 242255Z AUTO 00000KT 10SM FEW042 BKN055 OVC070 14/11 A2958 RMK AO2
Observed
May-24 @ 22:55 UTC
Visibility
10 SM
Flight Rules
VFR
Cloud Levels
  • Few at 4,200' AGL
  • Broken at 5,500' AGL
  • Overcast at 7,000' AGL
Temperature
14°C / 57°F
Dewpoint
11°C / 52°F
Humidity
82%
Altimeter
29.58" Hg
Pressure
1001.72 hPa
Previous

58 mins ago

K46D 242235Z AUTO 00000KT 6SM BR FEW040 BKN055 OVC065 14/11 A2958 RMK AO2 LTG DSNT E AND SE
Observed
May-24 @ 22:35 UTC
Visibility
6 SM
Flight Rules
VFR
Conditions
Mist
Cloud Levels
  • Few at 4,000' AGL
  • Broken at 5,500' AGL
  • Overcast at 6,500' AGL
Temperature
14°C / 57°F
Dewpoint
11°C / 52°F
Humidity
82%
Altimeter
29.58" Hg
Pressure
1001.72 hPa